Terminal Aerodrome Forecast
Issued by NWS Wakefield, VA

Home | Current Version | Previous Version | Text Only | Print | Product List | Glossary On
Versions: 1 2 3 4 5 6 7 8 9 10 11 12 13 14 15 16 17 18 19
000
FTUS41 KAKQ 261100 RRA
TAFRIC
TAF
KRIC 261144Z 2612/2712 11005KT P6SM -RA OVC050
     FM261500 06007KT 4SM -RA BR OVC025
     FM262100 01010KT 3SM -RA BR OVC015
     FM270200 36011KT 2SM -RASN BR OVC012
     FM270500 35012G20KT 1SM -SN BR OVC007=

USA.gov is the U.S. government's official web portal to all federal, state and local government web resources and services.